sensor_id;sensor_type;location;lat;lon;timestamp;pressure;altitude;pressure_sealevel;temperature;humidity
45285;BME280;31026;43.780;25.948;2023-08-21T00:01:54;100935.41;;;25.07;49.96
45285;BME280;31026;43.780;25.948;2023-08-21T00:04:22;100942.84;;;25.05;50.11
45285;BME280;31026;43.780;25.948;2023-08-21T00:06:50;100928.81;;;25.01;49.97
45285;BME280;31026;43.780;25.948;2023-08-21T00:09:19;100931.34;;;25.11;49.97
45285;BME280;31026;43.780;25.948;2023-08-21T00:11:47;100941.13;;;25.04;53.99
45285;BME280;31026;43.780;25.948;2023-08-21T00:14:15;100945.03;;;25.01;51.92
45285;BME280;31026;43.780;25.948;2023-08-21T00:16:43;100940.63;;;25.00;53.90
45285;BME280;31026;43.780;25.948;2023-08-21T00:19:14;100936.41;;;24.98;53.30
45285;BME280;31026;43.780;25.948;2023-08-21T00:21:42;100928.47;;;24.96;51.86
45285;BME280;31026;43.780;25.948;2023-08-21T00:24:11;100933.56;;;24.99;50.94
45285;BME280;31026;43.780;25.948;2023-08-21T00:26:39;100935.22;;;25.00;50.54
45285;BME280;31026;43.780;25.948;2023-08-21T00:29:07;100946.03;;;25.09;50.69
45285;BME280;31026;43.780;25.948;2023-08-21T00:31:36;100948.41;;;25.04;53.62
45285;BME280;31026;43.780;25.948;2023-08-21T00:34:04;100946.41;;;24.97;53.64
45285;BME280;31026;43.780;25.948;2023-08-21T00:36:35;100953.84;;;24.95;51.42
45285;BME280;31026;43.780;25.948;2023-08-21T00:39:03;100947.75;;;25.01;51.38
45285;BME280;31026;43.780;25.948;2023-08-21T00:41:31;100955.19;;;24.99;51.16
45285;BME280;31026;43.780;25.948;2023-08-21T00:44:00;100947.06;;;24.99;50.06
45285;BME280;31026;43.780;25.948;2023-08-21T00:46:29;100934.06;;;25.03;50.30
45285;BME280;31026;43.780;25.948;2023-08-21T00:48:58;100953.84;;;24.95;50.26
45285;BME280;31026;43.780;25.948;2023-08-21T00:51:26;100950.78;;;25.07;50.32
45285;BME280;31026;43.780;25.948;2023-08-21T00:53:57;100944.38;;;24.99;50.09
45285;BME280;31026;43.780;25.948;2023-08-21T00:56:25;100957.53;;;25.02;49.84
45285;BME280;31026;43.780;25.948;2023-08-21T00:58:54;100959.09;;;25.05;49.74
45285;BME280;31026;43.780;25.948;2023-08-21T01:01:22;100960.75;;;25.06;49.72
45285;BME280;31026;43.780;25.948;2023-08-21T01:03:51;100969.72;;;25.07;49.67
45285;BME280;31026;43.780;25.948;2023-08-21T01:06:20;100966.00;;;24.99;49.76
45285;BME280;31026;43.780;25.948;2023-08-21T01:08:49;100980.22;;;25.01;50.05
45285;BME280;31026;43.780;25.948;2023-08-21T01:11:25;100961.94;;;25.04;50.19
45285;BME280;31026;43.780;25.948;2023-08-21T01:13:54;100967.88;;;24.99;49.90
45285;BME280;31026;43.780;25.948;2023-08-21T01:16:25;100978.84;;;25.06;50.02
45285;BME280;31026;43.780;25.948;2023-08-21T01:18:54;100974.97;;;25.00;51.49
45285;BME280;31026;43.780;25.948;2023-08-21T01:21:23;100963.63;;;24.96;50.54
45285;BME280;31026;43.780;25.948;2023-08-21T01:23:54;100973.47;;;24.97;50.97
45285;BME280;31026;43.780;25.948;2023-08-21T01:26:22;100961.81;;;24.97;51.70
45285;BME280;31026;43.780;25.948;2023-08-21T01:28:50;100957.91;;;24.91;51.08
45285;BME280;31026;43.780;25.948;2023-08-21T01:31:21;100969.25;;;24.95;51.29
45285;BME280;31026;43.780;25.948;2023-08-21T01:33:50;100966.69;;;24.93;50.73
45285;BME280;31026;43.780;25.948;2023-08-21T01:36:19;100965.66;;;24.94;50.20
45285;BME280;31026;43.780;25.948;2023-08-21T01:38:48;100979.03;;;24.96;50.01
45285;BME280;31026;43.780;25.948;2023-08-21T01:41:19;100972.13;;;24.93;49.67
45285;BME280;31026;43.780;25.948;2023-08-21T01:43:47;100970.09;;;24.95;49.48
45285;BME280;31026;43.780;25.948;2023-08-21T01:46:16;100965.16;;;24.91;49.42
45285;BME280;31026;43.780;25.948;2023-08-21T01:48:45;100969.41;;;24.93;49.67
45285;BME280;31026;43.780;25.948;2023-08-21T01:51:13;100983.94;;;24.92;49.64
45285;BME280;31026;43.780;25.948;2023-08-21T01:53:42;100964.00;;;24.93;49.36
45285;BME280;31026;43.780;25.948;2023-08-21T01:56:10;100960.94;;;24.96;49.71
45285;BME280;31026;43.780;25.948;2023-08-21T01:58:41;100953.66;;;24.89;49.33
45285;BME280;31026;43.780;25.948;2023-08-21T02:01:09;100964.84;;;24.94;49.27
45285;BME280;31026;43.780;25.948;2023-08-21T02:03:37;100964.31;;;24.90;49.50
45285;BME280;31026;43.780;25.948;2023-08-21T02:06:05;100946.41;;;24.89;49.38
45285;BME280;31026;43.780;25.948;2023-08-21T02:08:34;100954.84;;;24.86;49.35
45285;BME280;31026;43.780;25.948;2023-08-21T02:11:02;100974.13;;;24.91;49.57
45285;BME280;31026;43.780;25.948;2023-08-21T02:13:30;100955.00;;;24.93;49.74
45285;BME280;31026;43.780;25.948;2023-08-21T02:16:02;100963.66;;;24.88;50.37
45285;BME280;31026;43.780;25.948;2023-08-21T02:18:30;100970.41;;;24.84;51.97
45285;BME280;31026;43.780;25.948;2023-08-21T02:21:00;100985.97;;;24.82;50.72
45285;BME280;31026;43.780;25.948;2023-08-21T02:23:28;100966.03;;;24.83;50.33
45285;BME280;31026;43.780;25.948;2023-08-21T02:25:56;100954.19;;;24.84;50.34
45285;BME280;31026;43.780;25.948;2023-08-21T02:28:25;100981.91;;;24.86;50.08
45285;BME280;31026;43.780;25.948;2023-08-21T02:30:53;100963.31;;;24.91;50.18
45285;BME280;31026;43.780;25.948;2023-08-21T02:33:24;100985.63;;;24.93;49.93
45285;BME280;31026;43.780;25.948;2023-08-21T02:35:52;100956.56;;;24.87;49.73
45285;BME280;31026;43.780;25.948;2023-08-21T02:38:20;100984.59;;;24.86;49.66
45285;BME280;31026;43.780;25.948;2023-08-21T02:40:49;100971.09;;;24.86;49.66
45285;BME280;31026;43.780;25.948;2023-08-21T02:43:17;100971.91;;;24.87;49.71
45285;BME280;31026;43.780;25.948;2023-08-21T02:45:46;100979.19;;;24.78;49.66
45285;BME280;31026;43.780;25.948;2023-08-21T02:48:14;100982.25;;;24.83;49.73
45285;BME280;31026;43.780;25.948;2023-08-21T02:50:45;100972.78;;;24.87;49.72
45285;BME280;31026;43.780;25.948;2023-08-21T02:53:13;100971.09;;;24.78;50.13
45285;BME280;31026;43.780;25.948;2023-08-21T02:55:41;100974.78;;;24.77;50.37
45285;BME280;31026;43.780;25.948;2023-08-21T02:58:09;100990.03;;;24.78;50.84
45285;BME280;31026;43.780;25.948;2023-08-21T03:00:38;100981.06;;;24.77;50.76
45285;BME280;31026;43.780;25.948;2023-08-21T03:03:06;100972.78;;;24.79;50.42
45285;BME280;31026;43.780;25.948;2023-08-21T03:05:32;100975.31;;;24.80;49.76
45285;BME280;31026;43.780;25.948;2023-08-21T03:08:03;100981.91;;;24.86;50.06
45285;BME280;31026;43.780;25.948;2023-08-21T03:10:31;100976.66;;;24.68;50.50
45285;BME280;31026;43.780;25.948;2023-08-21T03:12:59;100985.59;;;24.60;50.34
45285;BME280;31026;43.780;25.948;2023-08-21T03:15:27;100993.03;;;24.50;50.48
45285;BME280;31026;43.780;25.948;2023-08-21T03:17:56;100982.22;;;24.50;50.14
45285;BME280;31026;43.780;25.948;2023-08-21T03:20:25;100985.91;;;24.49;49.90
45285;BME280;31026;43.780;25.948;2023-08-21T03:22:53;100987.22;;;24.45;50.28
45285;BME280;31026;43.780;25.948;2023-08-21T03:25:24;100998.13;;;24.53;50.01
45285;BME280;31026;43.780;25.948;2023-08-21T03:27:52;100994.19;;;24.48;50.70
45285;BME280;31026;43.780;25.948;2023-08-21T03:30:20;100985.59;;;24.52;50.70
45285;BME280;31026;43.780;25.948;2023-08-21T03:32:49;100993.88;;;24.51;50.44
45285;BME280;31026;43.780;25.948;2023-08-21T03:35:17;100989.09;;;24.45;50.88
45285;BME280;31026;43.780;25.948;2023-08-21T03:37:45;100982.84;;;24.44;50.76
45285;BME280;31026;43.780;25.948;2023-08-21T03:40:13;101002.78;;;24.43;50.69
45285;BME280;31026;43.780;25.948;2023-08-21T03:42:44;100997.56;;;24.41;50.19
45285;BME280;31026;43.780;25.948;2023-08-21T03:45:13;100980.81;;;24.30;50.15
45285;BME280;31026;43.780;25.948;2023-08-21T03:47:41;100988.25;;;24.28;50.24
45285;BME280;31026;43.780;25.948;2023-08-21T03:50:09;101002.44;;;24.30;50.14
45285;BME280;31026;43.780;25.948;2023-08-21T03:52:37;100988.09;;;24.37;49.83
45285;BME280;31026;43.780;25.948;2023-08-21T03:55:06;100990.13;;;24.35;50.00
45285;BME280;31026;43.780;25.948;2023-08-21T03:57:35;101001.75;;;24.36;50.06
45285;BME280;31026;43.780;25.948;2023-08-21T04:00:06;100998.00;;;24.20;50.50
45285;BME280;31026;43.780;25.948;2023-08-21T04:02:35;100996.69;;;24.33;50.05
45285;BME280;31026;43.780;25.948;2023-08-21T04:05:04;100999.38;;;24.33;50.12
45285;BME280;31026;43.780;25.948;2023-08-21T04:07:32;101007.19;;;24.44;49.46
45285;BME280;31026;43.780;25.948;2023-08-21T04:10:01;100990.28;;;24.42;49.71
45285;BME280;31026;43.780;25.948;2023-08-21T04:12:29;101016.13;;;24.45;49.60
45285;BME280;31026;43.780;25.948;2023-08-21T04:14:59;101012.97;;;24.49;49.85
45285;BME280;31026;43.780;25.948;2023-08-21T04:17:30;101014.66;;;24.58;49.78
45285;BME280;31026;43.780;25.948;2023-08-21T04:19:58;101029.91;;;24.68;49.65
45285;BME280;31026;43.780;25.948;2023-08-21T04:22:26;101015.56;;;24.84;49.13
45285;BME280;31026;43.780;25.948;2023-08-21T04:24:55;101013.03;;;25.23;48.51
45285;BME280;31026;43.780;25.948;2023-08-21T04:27:23;101016.97;;;25.76;47.19
45285;BME280;31026;43.780;25.948;2023-08-21T04:29:51;101025.25;;;26.31;46.06
45285;BME280;31026;43.780;25.948;2023-08-21T04:32:21;101027.38;;;26.75;44.98
45285;BME280;31026;43.780;25.948;2023-08-21T04:34:52;101003.19;;;26.65;45.87
45285;BME280;31026;43.780;25.948;2023-08-21T04:37:20;101013.06;;;26.58;46.22
45285;BME280;31026;43.780;25.948;2023-08-21T04:39:50;101017.38;;;26.13;47.51
45285;BME280;31026;43.780;25.948;2023-08-21T04:42:18;101016.09;;;25.92;48.10
45285;BME280;31026;43.780;25.948;2023-08-21T04:44:46;101031.28;;;25.46;49.83
45285;BME280;31026;43.780;25.948;2023-08-21T04:47:24;101017.38;;;25.57;49.51
45285;BME280;31026;43.780;25.948;2023-08-21T04:49:55;101029.53;;;25.69;49.62
45285;BME280;31026;43.780;25.948;2023-08-21T04:52:24;101030.94;;;25.32;49.18
45285;BME280;31026;43.780;25.948;2023-08-21T04:54:53;101040.09;;;25.15;49.30
45285;BME280;31026;43.780;25.948;2023-08-21T04:57:21;101031.63;;;25.10;49.38
45285;BME280;31026;43.780;25.948;2023-08-21T04:59:49;101039.75;;;25.01;49.32
45285;BME280;31026;43.780;25.948;2023-08-21T05:02:18;101040.25;;;24.97;49.85
45285;BME280;31026;43.780;25.948;2023-08-21T05:04:46;101029.59;;;25.04;49.47
45285;BME280;31026;43.780;25.948;2023-08-21T05:07:17;101035.34;;;24.92;50.04
45285;BME280;31026;43.780;25.948;2023-08-21T05:09:45;101032.63;;;24.92;50.36
45285;BME280;31026;43.780;25.948;2023-08-21T05:12:13;101044.13;;;24.94;50.61
45285;BME280;31026;43.780;25.948;2023-08-21T05:14:42;101037.72;;;25.04;50.40
45285;BME280;31026;43.780;25.948;2023-08-21T05:17:10;101036.69;;;25.05;52.34
45285;BME280;31026;43.780;25.948;2023-08-21T05:19:38;101040.41;;;25.12;53.37
45285;BME280;31026;43.780;25.948;2023-08-21T05:22:06;101044.13;;;25.11;52.73
45285;BME280;31026;43.780;25.948;2023-08-21T05:24:37;101038.38;;;25.14;53.69
45285;BME280;31026;43.780;25.948;2023-08-21T05:27:06;101045.00;;;25.11;54.08
45285;BME280;31026;43.780;25.948;2023-08-21T05:29:34;101033.97;;;25.05;54.14
45285;BME280;31026;43.780;25.948;2023-08-21T05:32:02;101040.06;;;24.82;55.67
45285;BME280;31026;43.780;25.948;2023-08-21T05:34:31;101040.91;;;24.91;56.38
45285;BME280;31026;43.780;25.948;2023-08-21T05:36:59;101049.53;;;24.94;55.88
45285;BME280;31026;43.780;25.948;2023-08-21T05:39:27;101041.94;;;25.06;56.27
45285;BME280;31026;43.780;25.948;2023-08-21T05:41:58;101032.97;;;25.14;56.77
45285;BME280;31026;43.780;25.948;2023-08-21T05:44:26;101039.91;;;25.08;57.50
45285;BME280;31026;43.780;25.948;2023-08-21T05:46:55;101026.88;;;24.95;58.14
45285;BME280;31026;43.780;25.948;2023-08-21T05:49:23;101046.66;;;24.96;58.79
45285;BME280;31026;43.780;25.948;2023-08-21T05:51:51;101044.63;;;24.98;58.03
45285;BME280;31026;43.780;25.948;2023-08-21T05:54:19;101041.09;;;25.14;58.38
45285;BME280;31026;43.780;25.948;2023-08-21T05:56:48;101045.81;;;25.12;58.36
45285;BME280;31026;43.780;25.948;2023-08-21T05:59:29;101036.72;;;25.13;58.45
45285;BME280;31026;43.780;25.948;2023-08-21T06:01:58;101037.03;;;25.26;58.78
45285;BME280;31026;43.780;25.948;2023-08-21T06:04:26;101038.75;;;25.27;59.14
45285;BME280;31026;43.780;25.948;2023-08-21T06:06:54;101031.16;;;25.31;59.27
45285;BME280;31026;43.780;25.948;2023-08-21T06:09:23;101022.47;;;25.44;59.31
45285;BME280;31026;43.780;25.948;2023-08-21T06:11:51;101037.31;;;25.64;58.50
45285;BME280;31026;43.780;25.948;2023-08-21T06:14:19;101021.94;;;25.56;60.01
45285;BME280;31026;43.780;25.948;2023-08-21T06:16:56;101038.38;;;25.55;60.58
45285;BME280;31026;43.780;25.948;2023-08-21T06:19:24;101051.25;;;25.28;55.58
45285;BME280;31026;43.780;25.948;2023-08-21T06:21:53;101037.19;;;25.08;55.16
45285;BME280;31026;43.780;25.948;2023-08-21T06:24:21;101047.84;;;25.10;57.84
45285;BME280;31026;43.780;25.948;2023-08-21T06:26:50;101050.75;;;25.33;58.52
45285;BME280;31026;43.780;25.948;2023-08-21T06:29:19;101053.09;;;25.44;58.18
45285;BME280;31026;43.780;25.948;2023-08-21T06:31:47;101048.91;;;25.33;58.25
45285;BME280;31026;43.780;25.948;2023-08-21T06:34:18;101047.19;;;25.40;58.08
45285;BME280;31026;43.780;25.948;2023-08-21T06:36:46;101054.28;;;25.50;60.19
45285;BME280;31026;43.780;25.948;2023-08-21T06:39:14;101047.53;;;25.46;60.26
45285;BME280;31026;43.780;25.948;2023-08-21T06:41:43;101055.13;;;25.50;61.42
45285;BME280;31026;43.780;25.948;2023-08-21T06:44:11;101065.94;;;25.50;60.67
45285;BME280;31026;43.780;25.948;2023-08-21T06:46:39;101065.47;;;25.47;61.31
45285;BME280;31026;43.780;25.948;2023-08-21T06:49:08;101048.34;;;25.63;60.65
45285;BME280;31026;43.780;25.948;2023-08-21T06:51:39;101052.25;;;25.52;61.26
45285;BME280;31026;43.780;25.948;2023-08-21T06:54:07;101042.25;;;25.69;59.50
45285;BME280;31026;43.780;25.948;2023-08-21T06:56:35;101052.88;;;25.78;62.68
45285;BME280;31026;43.780;25.948;2023-08-21T06:59:04;101060.31;;;25.76;63.39
45285;BME280;31026;43.780;25.948;2023-08-21T07:01:32;101062.59;;;25.32;64.07
45285;BME280;31026;43.780;25.948;2023-08-21T07:04:00;101064.09;;;25.01;62.31
45285;BME280;31026;43.780;25.948;2023-08-21T07:06:29;101053.06;;;24.87;60.72
45285;BME280;31026;43.780;25.948;2023-08-21T07:09:01;101056.97;;;24.76;60.19
45285;BME280;31026;43.780;25.948;2023-08-21T07:11:29;101061.53;;;24.75;59.88
45285;BME280;31026;43.780;25.948;2023-08-21T07:13:57;101055.91;;;24.69;59.30
45285;BME280;31026;43.780;25.948;2023-08-21T07:16:26;101060.50;;;24.76;59.39
45285;BME280;31026;43.780;25.948;2023-08-21T07:18:54;101051.88;;;24.73;57.78
45285;BME280;31026;43.780;25.948;2023-08-21T07:21:22;101038.03;;;24.68;57.80
45285;BME280;31026;43.780;25.948;2023-08-21T07:23:52;101056.78;;;24.69;57.20
45285;BME280;31026;43.780;25.948;2023-08-21T07:26:23;101045.47;;;24.66;56.83
45285;BME280;31026;43.780;25.948;2023-08-21T07:28:51;101040.72;;;24.59;56.29
45285;BME280;31026;43.780;25.948;2023-08-21T07:31:20;101029.22;;;24.57;56.27
45285;BME280;31026;43.780;25.948;2023-08-21T07:33:48;101043.91;;;24.55;55.50
45285;BME280;31026;43.780;25.948;2023-08-21T07:36:16;101045.09;;;24.52;55.35
45285;BME280;31026;43.780;25.948;2023-08-21T07:38:44;101050.81;;;24.49;54.50
45285;BME280;31026;43.780;25.948;2023-08-21T07:41:13;101048.47;;;24.54;54.54
45285;BME280;31026;43.780;25.948;2023-08-21T07:43:44;101038.13;;;24.50;54.38
45285;BME280;31026;43.780;25.948;2023-08-21T07:46:12;101031.72;;;24.51;53.81
45285;BME280;31026;43.780;25.948;2023-08-21T07:48:43;101035.56;;;24.48;53.71
45285;BME280;31026;43.780;25.948;2023-08-21T07:51:11;101036.91;;;24.44;53.35
45285;BME280;31026;43.780;25.948;2023-08-21T07:53:40;101042.47;;;24.42;52.77
45285;BME280;31026;43.780;25.948;2023-08-21T07:56:08;101028.13;;;24.42;53.04
45285;BME280;31026;43.780;25.948;2023-08-21T07:58:36;101040.63;;;24.43;52.48
45285;BME280;31026;43.780;25.948;2023-08-21T08:01:07;101040.63;;;24.43;52.63
45285;BME280;31026;43.780;25.948;2023-08-21T08:03:36;101036.41;;;24.40;52.17
45285;BME280;31026;43.780;25.948;2023-08-21T08:06:07;101027.97;;;24.35;51.80
45285;BME280;31026;43.780;25.948;2023-08-21T08:08:35;101033.16;;;24.37;51.88
45285;BME280;31026;43.780;25.948;2023-08-21T08:11:04;101033.00;;;24.38;51.71
45285;BME280;31026;43.780;25.948;2023-08-21T08:13:32;101028.78;;;24.36;51.40
45285;BME280;31026;43.780;25.948;2023-08-21T08:16:00;101037.59;;;24.38;51.21
45285;BME280;31026;43.780;25.948;2023-08-21T08:18:31;101038.09;;;24.33;51.18
45285;BME280;31026;43.780;25.948;2023-08-21T08:20:59;101031.81;;;24.33;51.12
45285;BME280;31026;43.780;25.948;2023-08-21T08:23:28;101037.22;;;24.33;51.03
45285;BME280;31026;43.780;25.948;2023-08-21T08:25:56;101020.31;;;24.31;50.67
45285;BME280;31026;43.780;25.948;2023-08-21T08:28:25;101021.88;;;24.33;50.50
45285;BME280;31026;43.780;25.948;2023-08-21T08:30:53;101010.88;;;24.35;50.36
45285;BME280;31026;43.780;25.948;2023-08-21T08:33:22;101021.19;;;24.31;50.32
45285;BME280;31026;43.780;25.948;2023-08-21T08:35:53;101019.63;;;24.29;49.94
45285;BME280;31026;43.780;25.948;2023-08-21T08:38:22;101019.47;;;24.30;49.94
45285;BME280;31026;43.780;25.948;2023-08-21T08:40:50;101016.63;;;24.32;49.86
45285;BME280;31026;43.780;25.948;2023-08-21T08:43:19;101005.81;;;24.32;49.54
45285;BME280;31026;43.780;25.948;2023-08-21T08:45:47;101008.66;;;24.30;49.47
45285;BME280;31026;43.780;25.948;2023-08-21T08:48:17;100998.03;;;24.29;49.69
45285;BME280;31026;43.780;25.948;2023-08-21T08:50:45;101006.28;;;24.27;49.33
45285;BME280;31026;43.780;25.948;2023-08-21T08:53:18;101011.69;;;24.27;49.39
45285;BME280;31026;43.780;25.948;2023-08-21T08:55:46;101001.06;;;24.26;49.00
45285;BME280;31026;43.780;25.948;2023-08-21T08:58:14;100995.31;;;24.29;48.86
45285;BME280;31026;43.780;25.948;2023-08-21T09:00:43;101007.34;;;24.42;49.14
45285;BME280;31026;43.780;25.948;2023-08-21T09:03:11;100992.38;;;24.65;50.07
45285;BME280;31026;43.780;25.948;2023-08-21T09:05:41;100989.34;;;25.00;49.53
45285;BME280;31026;43.780;25.948;2023-08-21T09:08:10;100975.47;;;25.12;50.16
45285;BME280;31026;43.780;25.948;2023-08-21T09:10:42;100980.88;;;25.20;50.10
45285;BME280;31026;43.780;25.948;2023-08-21T09:13:14;100978.69;;;25.24;50.27
45285;BME280;31026;43.780;25.948;2023-08-21T09:15:43;100984.63;;;25.27;50.47
45285;BME280;31026;43.780;25.948;2023-08-21T09:18:12;100980.03;;;25.36;50.39
45285;BME280;31026;43.780;25.948;2023-08-21T09:20:41;100979.84;;;25.37;50.44
45285;BME280;31026;43.780;25.948;2023-08-21T09:23:12;100968.47;;;25.50;50.20
45285;BME280;31026;43.780;25.948;2023-08-21T09:25:44;100974.91;;;25.57;50.44
45285;BME280;31026;43.780;25.948;2023-08-21T09:28:14;100968.13;;;25.53;50.76
45285;BME280;31026;43.780;25.948;2023-08-21T09:30:43;100962.56;;;25.55;50.72
45285;BME280;31026;43.780;25.948;2023-08-21T09:33:12;100962.34;;;25.56;51.03
45285;BME280;31026;43.780;25.948;2023-08-21T09:35:40;100975.75;;;25.50;51.31
45285;BME280;31026;43.780;25.948;2023-08-21T09:38:10;100960.88;;;25.46;51.63
45285;BME280;31026;43.780;25.948;2023-08-21T09:40:39;100958.69;;;25.49;51.81
45285;BME280;31026;43.780;25.948;2023-08-21T09:43:11;100968.97;;;25.54;51.86
45285;BME280;31026;43.780;25.948;2023-08-21T09:45:39;100951.09;;;25.20;53.55
45285;BME280;31026;43.780;25.948;2023-08-21T09:48:07;100954.34;;;24.83;52.94
45285;BME280;31026;43.780;25.948;2023-08-21T09:50:36;100960.78;;;24.65;52.68
45285;BME280;31026;43.780;25.948;2023-08-21T09:53:06;100956.22;;;24.57;52.28
45285;BME280;31026;43.780;25.948;2023-08-21T09:55:34;100945.72;;;24.54;52.17
45285;BME280;31026;43.780;25.948;2023-08-21T09:58:03;100940.16;;;24.64;52.15
45285;BME280;31026;43.780;25.948;2023-08-21T10:00:35;100953.34;;;24.67;51.68
45285;BME280;31026;43.780;25.948;2023-08-21T10:03:05;100966.69;;;24.69;51.39
45285;BME280;31026;43.780;25.948;2023-08-21T10:05:36;100954.50;;;24.73;51.25
45285;BME280;31026;43.780;25.948;2023-08-21T10:08:06;100943.03;;;24.63;52.97
45285;BME280;31026;43.780;25.948;2023-08-21T10:10:35;100950.63;;;24.59;52.96
45285;BME280;31026;43.780;25.948;2023-08-21T10:13:03;100940.00;;;24.57;53.43
45285;BME280;31026;43.780;25.948;2023-08-21T10:15:35;100933.22;;;24.78;52.66
45285;BME280;31026;43.780;25.948;2023-08-21T10:18:20;100921.91;;;24.58;52.79
45285;BME280;31026;43.780;25.948;2023-08-21T10:20:49;100923.75;;;24.74;53.07
45285;BME280;31026;43.780;25.948;2023-08-21T10:23:24;100920.53;;;25.03;52.25
45285;BME280;31026;43.780;25.948;2023-08-21T10:25:56;100915.81;;;24.97;52.69
45285;BME280;31026;43.780;25.948;2023-08-21T10:28:24;100926.63;;;25.05;52.89
45285;BME280;31026;43.780;25.948;2023-08-21T10:30:55;100913.28;;;24.87;53.45
45285;BME280;31026;43.780;25.948;2023-08-21T10:36:06;100903.41;;;24.12;54.92
45285;BME280;31026;43.780;25.948;2023-08-21T10:38:51;100906.47;;;24.17;54.51
45285;BME280;31026;43.780;25.948;2023-08-21T10:41:26;100893.63;;;24.19;54.25
45285;BME280;31026;43.780;25.948;2023-08-21T10:43:54;100895.31;;;24.20;54.75
45285;BME280;31026;43.780;25.948;2023-08-21T10:46:25;100907.47;;;24.25;55.01
45285;BME280;31026;43.780;25.948;2023-08-21T10:48:54;100906.13;;;24.20;55.66
45285;BME280;31026;43.780;25.948;2023-08-21T10:51:22;100897.50;;;24.25;55.94
45285;BME280;31026;43.780;25.948;2023-08-21T10:53:50;100877.94;;;24.31;56.39
45285;BME280;31026;43.780;25.948;2023-08-21T10:56:18;100879.09;;;24.20;56.90
45285;BME280;31026;43.780;25.948;2023-08-21T10:58:47;100882.84;;;24.28;57.37
45285;BME280;31026;43.780;25.948;2023-08-21T11:01:16;100895.47;;;24.27;57.51
45285;BME280;31026;43.780;25.948;2023-08-21T11:03:47;100893.50;;;24.29;57.57
45285;BME280;31026;43.780;25.948;2023-08-21T11:06:18;100893.28;;;24.31;57.46
45285;BME280;31026;43.780;25.948;2023-08-21T11:08:47;100868.13;;;24.30;57.69
45285;BME280;31026;43.780;25.948;2023-08-21T11:11:16;100881.97;;;24.19;58.09
45285;BME280;31026;43.780;25.948;2023-08-21T11:13:51;100863.56;;;24.14;57.71
45285;BME280;31026;43.780;25.948;2023-08-21T11:16:20;100872.84;;;24.12;57.36
45285;BME280;31026;43.780;25.948;2023-08-21T11:18:51;100875.72;;;24.10;57.50
45285;BME280;31026;43.780;25.948;2023-08-21T11:21:19;100877.91;;;24.07;57.21
45285;BME280;31026;43.780;25.948;2023-08-21T11:23:47;100868.28;;;24.12;56.91
45285;BME280;31026;43.780;25.948;2023-08-21T11:26:15;100872.00;;;24.11;56.70
45285;BME280;31026;43.780;25.948;2023-08-21T11:28:44;100865.59;;;24.12;56.99
45285;BME280;31026;43.780;25.948;2023-08-21T11:31:12;100856.28;;;24.07;57.32
45285;BME280;31026;43.780;25.948;2023-08-21T11:33:40;100847.00;;;24.01;57.64
45285;BME280;31026;43.780;25.948;2023-08-21T11:36:11;100862.03;;;24.04;58.07
45285;BME280;31026;43.780;25.948;2023-08-21T11:38:39;100847.88;;;24.10;58.30
45285;BME280;31026;43.780;25.948;2023-08-21T11:41:08;100850.88;;;24.07;58.45
45285;BME280;31026;43.780;25.948;2023-08-21T11:43:36;100860.69;;;23.99;58.87
45285;BME280;31026;43.780;25.948;2023-08-21T11:46:05;100858.47;;;24.03;59.15
45285;BME280;31026;43.780;25.948;2023-08-21T11:48:35;100848.03;;;24.08;59.32
45285;BME280;31026;43.780;25.948;2023-08-21T11:51:03;100838.88;;;24.09;59.50
45285;BME280;31026;43.780;25.948;2023-08-21T11:53:34;100840.28;;;24.13;59.35
45285;BME280;31026;43.780;25.948;2023-08-21T11:56:03;100842.09;;;24.13;59.53
45285;BME280;31026;43.780;25.948;2023-08-21T11:58:37;100842.94;;;24.05;59.96
45285;BME280;31026;43.780;25.948;2023-08-21T12:01:05;100846.00;;;24.10;59.69
45285;BME280;31026;43.780;25.948;2023-08-21T12:03:38;100841.63;;;24.17;59.36
45285;BME280;31026;43.780;25.948;2023-08-21T12:06:07;100841.13;;;24.14;59.88
45285;BME280;31026;43.780;25.948;2023-08-21T12:08:38;100831.13;;;24.14;59.55
45285;BME280;31026;43.780;25.948;2023-08-21T12:11:07;100830.09;;;24.07;59.43
45285;BME280;31026;43.780;25.948;2023-08-21T12:13:37;100849.38;;;24.12;59.22
45285;BME280;31026;43.780;25.948;2023-08-21T12:16:05;100841.28;;;24.12;58.86
45285;BME280;31026;43.780;25.948;2023-08-21T12:18:33;100831.47;;;24.11;58.77
45285;BME280;31026;43.780;25.948;2023-08-21T12:21:02;100839.56;;;24.11;58.56
45285;BME280;31026;43.780;25.948;2023-08-21T12:23:32;100826.41;;;24.08;58.75
45285;BME280;31026;43.780;25.948;2023-08-21T12:26:03;100829.28;;;24.07;58.85
45285;BME280;31026;43.780;25.948;2023-08-21T12:28:31;100837.56;;;24.13;58.85
45285;BME280;31026;43.780;25.948;2023-08-21T12:30:59;100822.19;;;24.14;59.11
45285;BME280;31026;43.780;25.948;2023-08-21T12:33:27;100821.69;;;24.18;58.84
45285;BME280;31026;43.780;25.948;2023-08-21T12:35:56;100832.81;;;24.07;58.70
45285;BME280;31026;43.780;25.948;2023-08-21T12:38:24;100815.44;;;24.01;58.20
45285;BME280;31026;43.780;25.948;2023-08-21T12:40:54;100819.28;;;23.91;58.07
45285;BME280;31026;43.780;25.948;2023-08-21T12:43:25;100831.63;;;23.93;57.69
45285;BME280;31026;43.780;25.948;2023-08-21T12:45:53;100831.13;;;23.98;57.75
45285;BME280;31026;43.780;25.948;2023-08-21T12:48:21;100835.34;;;24.00;58.42
45285;BME280;31026;43.780;25.948;2023-08-21T12:50:50;100822.19;;;24.06;58.54
45285;BME280;31026;43.780;25.948;2023-08-21T12:53:18;100807.81;;;23.97;58.83